Time;durP1;ratioP1;P1;durP2;ratioP2;P2;SDS_P1;SDS_P2;PMS_P1;PMS_P2;Temp;Humidity;BMP_temperature;BMP_pressure;BME280_temperature;BME280_humidity;BME280_pressure;Samples;Min_cycle;Max_cycle;Signal;HPM_P1;HPM_P2
2023/01/13 00:01:43;;;;;;;12.70;4.60;;;;;;;5.71;100.00;98989.10;104776;1292;24435;-31
2023/01/13 00:04:10;;;;;;;15.50;6.10;;;;;;;5.71;100.00;98990.07;104696;1292;23035;-31
2023/01/13 00:06:35;;;;;;;9.70;4.10;;;;;;;5.74;100.00;98991.79;104768;1292;24342;-34
2023/01/13 00:09:01;;;;;;;20.90;4.30;;;;;;;5.75;100.00;98992.17;104749;1292;22663;-32
2023/01/13 00:11:27;;;;;;;9.20;4.40;;;;;;;5.73;100.00;98994.41;104889;1292;22659;-30
2023/01/13 00:13:53;;;;;;;18.20;5.60;;;;;;;5.75;100.00;98991.46;104748;1303;22830;-30
2023/01/13 00:16:19;;;;;;;12.80;2.50;;;;;;;-74.48;39.40;39592.71;102636;1298;1002010;-30
2023/01/13 00:18:45;;;;;;;6.40;2.90;;;;;;;-128.00;-1.00;-1.00;101257;1303;1004709;-37
2023/01/13 00:21:15;;;;;;;5.30;3.10;;;;;;;-128.00;-1.00;-1.00;101232;1303;1004786;-34
2023/01/13 00:23:41;;;;;;;9.80;3.70;;;;;;;-128.00;-1.00;-1.00;101215;1303;1004861;-29
2023/01/13 00:26:09;;;;;;;13.80;4.10;;;;;;;-128.00;-1.00;-1.00;101355;1303;1004057;-29
2023/01/13 00:28:36;;;;;;;3.60;2.10;;;;;;;-128.00;-1.00;-1.00;101157;1303;1005121;-29
2023/01/13 00:31:06;;;;;;;14.20;5.40;;;;;;;-128.00;-1.00;-1.00;101092;1302;1003991;-35
2023/01/13 00:33:31;;;;;;;8.10;3.90;;;;;;;-128.00;-1.00;-1.00;101186;1303;1004500;-35
2023/01/13 00:35:57;;;;;;;12.30;4.70;;;;;;;-128.00;-1.00;-1.00;101213;1303;1004359;-31
2023/01/13 00:38:23;;;;;;;16.90;5.60;;;;;;;-128.00;-1.00;-1.00;101255;1303;1004406;-34
2023/01/13 00:40:58;;;;;;;8.30;2.60;;;;;;;-128.00;-1.00;-1.00;101158;1303;1004701;-34
2023/01/13 00:43:24;;;;;;;15.80;4.50;;;;;;;-128.00;-1.00;-1.00;101165;1303;1003518;-30
2023/01/13 00:45:50;;;;;;;17.20;7.30;;;;;;;-128.00;-1.00;-1.00;101164;1280;1004407;-33
2023/01/13 00:48:18;;;;;;;6.20;3.60;;;;;;;-128.00;-1.00;-1.00;101123;1303;1005378;-30
2023/01/13 00:50:44;;;;;;;3.70;2.10;;;;;;;-128.00;-1.00;-1.00;101254;1301;1004417;-30
2023/01/13 00:53:09;;;;;;;15.60;3.60;;;;;;;-128.00;-1.00;-1.00;101154;1303;1005092;-32
2023/01/13 00:55:35;;;;;;;6.30;2.80;;;;;;;-128.00;-1.00;-1.00;101258;1303;1003777;-29
2023/01/13 00:58:02;;;;;;;4.40;3.40;;;;;;;-128.00;-1.00;-1.00;101153;1303;1004829;-31
2023/01/13 01:00:29;;;;;;;8.50;3.50;;;;;;;-128.00;-1.00;-1.00;101207;1303;1004886;-31
2023/01/13 01:02:55;;;;;;;5.30;2.10;;;;;;;-128.00;-1.00;-1.00;101359;1303;1004533;-31
2023/01/13 01:05:20;;;;;;;5.10;2.10;;;;;;;-128.00;-1.00;-1.00;101177;1303;1004360;-31
2023/01/13 01:07:46;;;;;;;7.10;3.20;;;;;;;-128.00;-1.00;-1.00;101199;1303;1004223;-35
2023/01/13 01:10:11;;;;;;;8.90;3.30;;;;;;;-128.00;-1.00;-1.00;101339;1303;1004563;-31
2023/01/13 01:12:37;;;;;;;9.60;3.50;;;;;;;-128.00;-1.00;-1.00;101138;1303;1004675;-35
2023/01/13 01:15:04;;;;;;;10.20;4.20;;;;;;;-128.00;-1.00;-1.00;101053;1303;1004130;-38
2023/01/13 01:17:30;;;;;;;5.70;3.20;;;;;;;-128.00;-1.00;-1.00;101262;1303;1005027;-30
2023/01/13 01:19:56;;;;;;;7.80;2.10;;;;;;;-128.00;-1.00;-1.00;101241;1300;1003294;-34
2023/01/13 01:22:21;;;;;;;6.90;1.60;;;;;;;-128.00;-1.00;-1.00;101081;1303;1004604;-35
2023/01/13 01:24:47;;;;;;;3.50;1.60;;;;;;;-128.00;-1.00;-1.00;101124;1303;1004940;-30
2023/01/13 01:27:12;;;;;;;3.90;2.00;;;;;;;-128.00;-1.00;-1.00;101109;1303;1005788;-30
2023/01/13 01:29:38;;;;;;;16.70;4.60;;;;;;;-128.00;-1.00;-1.00;101217;1303;1004487;-31
2023/01/13 01:32:04;;;;;;;4.30;1.80;;;;;;;-128.00;-1.00;-1.00;101003;1303;1004707;-35
2023/01/13 01:34:30;;;;;;;4.50;1.60;;;;;;;-128.00;-1.00;-1.00;101085;1303;1004721;-30
2023/01/13 01:36:56;;;;;;;15.60;3.90;;;;;;;-128.00;-1.00;-1.00;101188;1303;1004797;-31
2023/01/13 01:39:21;;;;;;;5.20;2.70;;;;;;;-128.00;-1.00;-1.00;101232;1303;1004496;-34
2023/01/13 01:44:40;;;;;;;6.10;2.90;;;;;;;-128.00;-1.00;-1.00;101118;1303;1004518;-29
2023/01/13 01:47:05;;;;;;;6.00;2.90;;;;;;;-128.00;-1.00;-1.00;101154;1303;1005270;-34
2023/01/13 01:49:32;;;;;;;9.60;4.00;;;;;;;-128.00;-1.00;-1.00;101155;1303;1003936;-29
2023/01/13 01:52:01;;;;;;;4.90;1.70;;;;;;;-128.00;-1.00;-1.00;101199;1303;1005100;-30
2023/01/13 01:54:41;;;;;;;5.90;2.00;;;;;;;-128.00;-1.00;-1.00;101279;1303;1004579;-36
2023/01/13 01:57:07;;;;;;;11.80;4.80;;;;;;;-128.00;-1.00;-1.00;101139;1303;1004444;-31
2023/01/13 01:59:33;;;;;;;7.50;2.20;;;;;;;-128.00;-1.00;-1.00;101111;1303;1003823;-34
2023/01/13 02:01:59;;;;;;;10.70;5.40;;;;;;;-128.00;-1.00;-1.00;101289;1303;1003965;-31
2023/01/13 02:04:28;;;;;;;9.00;4.80;;;;;;;-128.00;-1.00;-1.00;101217;1303;1004444;-34
2023/01/13 02:06:53;;;;;;;9.70;4.20;;;;;;;-128.00;-1.00;-1.00;101336;1303;1003625;-35
2023/01/13 02:09:19;;;;;;;17.80;3.40;;;;;;;-128.00;-1.00;-1.00;101075;1303;1004762;-30
2023/01/13 02:14:14;;;;;;;4.20;2.50;;;;;;;-128.00;-1.00;-1.00;101365;1303;1004537;-34
2023/01/13 02:16:43;;;;;;;8.60;2.30;;;;;;;-128.00;-1.00;-1.00;101083;1303;1004424;-34
2023/01/13 02:19:30;;;;;;;7.70;3.30;;;;;;;-128.00;-1.00;-1.00;101016;1303;1004192;-31
2023/01/13 02:22:17;;;;;;;3.90;1.30;;;;;;;-128.00;-1.00;-1.00;101156;1303;1004482;-31
2023/01/13 02:25:07;;;;;;;4.80;1.70;;;;;;;-128.00;-1.00;-1.00;101174;1303;1005072;-31
2023/01/13 02:27:59;;;;;;;4.60;1.30;;;;;;;-128.00;-1.00;-1.00;101087;1303;1004922;-31
2023/01/13 02:33:24;;;;;;;2.30;1.10;;;;;;;-128.00;-1.00;-1.00;101080;1303;1004691;-31
2023/01/13 02:36:04;;;;;;;3.40;1.40;;;;;;;-128.00;-1.00;-1.00;101118;1303;1004498;-31
2023/01/13 02:38:36;;;;;;;3.00;1.10;;;;;;;-128.00;-1.00;-1.00;101283;1303;1004604;-32
2023/01/13 02:46:16;;;;;;;3.40;1.30;;;;;;;-128.00;-1.00;-1.00;101265;1300;1004035;-30
2023/01/13 02:48:43;;;;;;;1.40;0.90;;;;;;;-128.00;-1.00;-1.00;101226;1303;1003994;-29
2023/01/13 02:51:12;;;;;;;3.00;1.10;;;;;;;-128.00;-1.00;-1.00;101265;1303;1004801;-34
2023/01/13 02:53:41;;;;;;;2.60;1.50;;;;;;;-128.00;-1.00;-1.00;101168;1303;1004477;-33
2023/01/13 02:56:07;;;;;;;2.50;1.20;;;;;;;-128.00;-1.00;-1.00;101237;1303;1005005;-30
2023/01/13 02:58:34;;;;;;;2.50;1.30;;;;;;;-128.00;-1.00;-1.00;101160;1303;1003874;-38
2023/01/13 03:00:59;;;;;;;2.00;1.10;;;;;;;-128.00;-1.00;-1.00;101168;1303;1004788;-31
2023/01/13 03:03:25;;;;;;;5.00;1.30;;;;;;;-128.00;-1.00;-1.00;101201;1303;1004313;-31
2023/01/13 03:05:53;;;;;;;3.20;0.90;;;;;;;-128.00;-1.00;-1.00;101255;1303;1004360;-31
2023/01/13 03:08:46;;;;;;;5.10;1.50;;;;;;;-128.00;-1.00;-1.00;101270;1303;1004477;-31
2023/01/13 03:11:12;;;;;;;5.00;1.80;;;;;;;-128.00;-1.00;-1.00;101123;1303;1004831;-35
2023/01/13 03:14:04;;;;;;;1.20;0.70;;;;;;;-128.00;-1.00;-1.00;101228;1303;1004790;-32
2023/01/13 03:16:54;;;;;;;3.20;1.30;;;;;;;-128.00;-1.00;-1.00;101122;1303;1004711;-31
2023/01/13 03:19:32;;;;;;;1.00;0.70;;;;;;;-128.00;-1.00;-1.00;101278;1303;1005510;-35
2023/01/13 03:22:05;;;;;;;2.30;0.90;;;;;;;-128.00;-1.00;-1.00;100887;1303;1004425;-30
2023/01/13 03:28:09;;;;;;;1.80;1.10;;;;;;;;;;103721;1305;545022;-29
2023/01/13 03:30:39;;;;;;;3.00;0.80;;;;;;;;;;103726;1315;23000;-30
2023/01/13 03:33:14;;;;;;;3.20;1.10;;;;;;;;;;103549;1314;22579;-34
2023/01/13 03:35:41;;;;;;;1.20;0.70;;;;;;;;;;103637;1315;22828;-30
2023/01/13 03:38:11;;;;;;;1.40;1.00;;;;;;;;;;103727;1304;24321;-30
2023/01/13 03:40:41;;;;;;;4.50;1.30;;;;;;;;;;103278;1304;485801;-30
2023/01/13 03:45:46;;;;;;;1.80;0.80;;;;;;;;;;104026;1311;23035;-34
2023/01/13 03:48:13;;;;;;;1.50;0.90;;;;;;;;;;103877;1301;23169;-34
2023/01/13 03:50:44;;;;;;;3.40;0.90;;;;;;;;;;103994;1302;23180;-30
2023/01/13 03:53:14;;;;;;;2.60;1.40;;;;;;;;;;103958;1301;24312;-30
2023/01/13 03:55:42;;;;;;;4.10;1.40;;;;;;;;;;103966;1301;24311;-30
2023/01/13 03:58:13;;;;;;;1.50;0.90;;;;;;;;;;104057;1302;25640;-31
2023/01/13 04:00:47;;;;;;;2.30;1.40;;;;;;;;;;104069;1302;24305;-31
2023/01/13 04:03:12;;;;;;;;;;;;;;;;;;103958;1311;24372;-30
2023/01/13 04:05:40;;;;;;;3.40;1.30;;;;;;;;;;103947;1301;24626;-30
2023/01/13 04:08:15;;;;;;;2.90;0.80;;;;;;;;;;104011;1301;24757;-34
2023/01/13 04:10:46;;;;;;;2.90;0.70;;;;;;;;;;103901;1302;23038;-33
2023/01/13 04:13:13;;;;;;;4.10;0.90;;;;;;;;;;104016;1311;24438;-31
2023/01/13 04:15:42;;;;;;;2.10;0.90;;;;;;;;;;103992;1301;22820;-34
2023/01/13 04:18:10;;;;;;;8.40;0.70;;;;;;;;;;103861;1301;24943;-34
2023/01/13 04:20:36;;;;;;;2.40;0.80;;;;;;;;;;104071;1302;24318;-30
2023/01/13 04:23:01;;;;;;;2.10;1.00;;;;;;;;;;104020;1311;22628;-38
2023/01/13 04:25:27;;;;;;;3.60;0.70;;;;;;;;;;104098;1301;24439;-30
2023/01/13 04:27:52;;;;;;;2.40;1.00;;;;;;;;;;103970;1311;25333;-30
2023/01/13 04:30:18;;;;;;;4.80;1.60;;;;;;;;;;104092;1301;26414;-30
2023/01/13 04:32:43;;;;;;;3.00;1.10;;;;;;;;;;103975;1307;22593;-34
2023/01/13 04:35:09;;;;;;;4.30;1.50;;;;;;;;;;103909;1301;24485;-31
2023/01/13 04:37:35;;;;;;;3.30;1.60;;;;;;;;;;104088;1295;24410;-30
2023/01/13 05:18:05;;;;;;;3.80;1.20;;;;;;;6.24;100.00;98816.08;104338;1301;404582;-36
2023/01/13 05:20:31;;;;;;;2.40;1.10;;;;;;;6.19;100.00;98816.65;104856;1297;22709;-30
2023/01/13 05:25:26;;;;;;;4.00;1.20;;;;;;;6.16;100.00;98814.95;104807;1302;22619;-31
2023/01/13 05:27:57;;;;;;;1.90;1.10;;;;;;;6.15;100.00;98814.17;104929;1291;22672;-31
2023/01/13 05:30:25;;;;;;;6.10;1.20;;;;;;;6.19;100.00;98813.87;104911;1288;22670;-30
2023/01/13 05:32:50;;;;;;;2.40;0.90;;;;;;;6.15;100.00;98812.20;104809;1291;23032;-34
2023/01/13 05:35:16;;;;;;;3.40;1.50;;;;;;;6.17;100.00;98813.05;104792;1291;22662;-34
2023/01/13 05:37:43;;;;;;;2.30;1.10;;;;;;;6.21;100.00;98811.18;104799;1291;22813;-34
2023/01/13 05:45:09;;;;;;;1.10;0.70;;;;;;;6.26;100.00;98807.24;104871;1291;24768;-34
2023/01/13 05:47:34;;;;;;;3.30;1.80;;;;;;;6.23;100.00;98808.91;104835;1291;22703;-31
2023/01/13 05:50:01;;;;;;;3.80;1.20;;;;;;;6.25;100.00;98809.90;104910;1291;22669;-35
2023/01/13 05:52:27;;;;;;;1.70;0.80;;;;;;;6.26;100.00;98811.96;104888;1291;22668;-31
2023/01/13 05:54:53;;;;;;;2.30;1.10;;;;;;;6.25;100.00;98810.46;104818;1291;22786;-34
2023/01/13 05:57:18;;;;;;;5.90;0.80;;;;;;;6.21;100.00;98808.67;104770;1302;23177;-35
2023/01/13 05:59:44;;;;;;;4.60;1.20;;;;;;;6.24;99.94;98811.11;104623;1294;23037;-30
2023/01/13 06:02:09;;;;;;;3.20;1.40;;;;;;;6.26;99.93;98811.55;104871;1299;22777;-31
2023/01/13 06:04:35;;;;;;;0.90;0.50;;;;;;;6.24;99.79;98812.89;104803;1302;23466;-34
2023/01/13 06:07:00;;;;;;;3.20;1.20;;;;;;;6.27;99.31;98812.50;104865;1294;22677;-30
2023/01/13 06:09:26;;;;;;;2.00;0.90;;;;;;;6.30;99.49;98819.85;104834;1291;23031;-31
2023/01/13 06:11:52;;;;;;;2.90;1.20;;;;;;;6.29;99.76;98823.58;104808;1291;24255;-35
2023/01/13 06:14:17;;;;;;;2.50;1.10;;;;;;;6.26;99.95;98826.67;104776;1292;22649;-35
2023/01/13 06:16:44;;;;;;;4.60;1.00;;;;;;;6.24;100.00;98825.72;104780;1303;23298;-31
2023/01/13 06:19:11;;;;;;;1.70;0.80;;;;;;;6.21;100.00;98829.61;104675;1291;22855;-31
2023/01/13 06:21:38;;;;;;;3.40;1.00;;;;;;;6.18;100.00;98824.42;104791;1302;22559;-34
2023/01/13 06:24:04;;;;;;;1.10;0.70;;;;;;;6.16;100.00;98827.40;104696;1291;22684;-33
2023/01/13 06:26:32;;;;;;;3.90;1.30;;;;;;;6.11;100.00;98824.24;104880;1297;22559;-30
2023/01/13 06:28:57;;;;;;;3.80;0.70;;;;;;;6.08;100.00;98824.93;104838;1303;26649;-34
2023/01/13 06:31:23;;;;;;;2.40;1.10;;;;;;;5.99;100.00;98826.15;104681;1291;22666;-29
2023/01/13 06:33:51;;;;;;;2.20;0.70;;;;;;;6.04;100.00;98823.90;104572;1303;23103;-30
2023/01/13 06:36:21;;;;;;;2.50;0.90;;;;;;;6.06;100.00;98821.35;104699;1291;23187;-34
2023/01/13 06:38:51;;;;;;;3.50;1.50;;;;;;;6.04;100.00;98825.60;104822;1291;24384;-30
2023/01/13 06:41:17;;;;;;;3.30;0.70;;;;;;;6.01;100.00;98823.20;104779;1291;23032;-30
2023/01/13 06:43:42;;;;;;;6.80;1.30;;;;;;;6.03;100.00;98822.70;104742;1291;23052;-30
2023/01/13 06:46:08;;;;;;;7.10;1.90;;;;;;;6.03;100.00;98822.45;104668;1303;23468;-30
2023/01/13 06:48:34;;;;;;;12.00;1.60;;;;;;;6.07;100.00;98828.54;104674;1291;23165;-30
2023/01/13 06:51:00;;;;;;;7.60;1.90;;;;;;;6.10;100.00;98827.75;104578;1298;22945;-30
2023/01/13 06:53:26;;;;;;;3.90;1.70;;;;;;;6.09;100.00;98832.50;104816;1294;22938;-35
2023/01/13 06:55:51;;;;;;;5.70;1.50;;;;;;;6.12;100.00;98830.33;104685;1302;22808;-31
2023/01/13 06:58:17;;;;;;;6.70;1.60;;;;;;;6.12;100.00;98834.72;104710;1303;24420;-31
2023/01/13 07:00:43;;;;;;;3.60;1.00;;;;;;;6.14;100.00;98832.98;104895;1295;22672;-35
2023/01/13 07:03:11;;;;;;;2.40;0.90;;;;;;;6.14;100.00;98830.65;104720;1291;24231;-30
2023/01/13 07:05:37;;;;;;;2.50;1.10;;;;;;;6.14;100.00;98830.67;104925;1285;22819;-33
2023/01/13 07:08:03;;;;;;;3.10;1.20;;;;;;;6.12;100.00;98829.79;104792;1284;22999;-34
2023/01/13 07:10:29;;;;;;;3.50;1.20;;;;;;;6.11;100.00;98826.77;104734;1290;24503;-33
2023/01/13 07:15:24;;;;;;;2.00;1.10;;;;;;;6.06;100.00;98823.19;104645;1282;22563;-30
2023/01/13 07:17:50;;;;;;;2.20;1.00;;;;;;;6.05;100.00;98821.71;104768;1287;22570;-33
2023/01/13 07:20:16;;;;;;;9.70;1.40;;;;;;;6.04;100.00;98832.64;104739;1284;22697;-32
2023/01/13 07:22:42;;;;;;;1.80;0.90;;;;;;;6.01;100.00;98830.36;104748;1291;22682;-31
2023/01/13 07:25:08;;;;;;;3.80;0.70;;;;;;;5.98;100.00;98835.20;104787;1302;24229;-30
2023/01/13 07:27:34;;;;;;;5.80;2.10;;;;;;;-101.20;19.20;19766.13;101874;1291;1004238;-30
2023/01/13 07:30:00;;;;;;;3.70;0.70;;;;;;;-128.00;-1.00;-1.00;101147;1280;1003475;-30
2023/01/13 07:32:26;;;;;;;3.00;1.20;;;;;;;-128.00;-1.00;-1.00;101127;1303;1003759;-30
2023/01/13 07:34:51;;;;;;;4.60;1.10;;;;;;;-128.00;-1.00;-1.00;101168;1303;1004467;-34
2023/01/13 07:37:17;;;;;;;2.00;1.40;;;;;;;-128.00;-1.00;-1.00;101214;1303;1004750;-30
2023/01/13 07:39:44;;;;;;;4.10;1.30;;;;;;;-128.00;-1.00;-1.00;101213;1303;1005117;-31
2023/01/13 07:44:39;;;;;;;1.20;0.60;;;;;;;-128.00;-1.00;-1.00;101212;1303;1004987;-36
2023/01/13 07:47:04;;;;;;;5.40;1.20;;;;;;;-128.00;-1.00;-1.00;101157;1303;1004187;-30
2023/01/13 07:49:30;;;;;;;6.20;0.90;;;;;;;-128.00;-1.00;-1.00;101090;1303;1004457;-30
2023/01/13 07:51:56;;;;;;;6.80;1.00;;;;;;;-128.00;-1.00;-1.00;101037;1303;1005402;-34
2023/01/13 07:54:21;;;;;;;2.40;1.00;;;;;;;-128.00;-1.00;-1.00;101148;1303;1004807;-31
2023/01/13 07:56:47;;;;;;;2.80;1.00;;;;;;;-128.00;-1.00;-1.00;101328;1302;1004734;-31
2023/01/13 07:59:12;;;;;;;1.70;0.90;;;;;;;-128.00;-1.00;-1.00;101086;1302;1004718;-34
2023/01/13 08:01:38;;;;;;;2.80;1.10;;;;;;;-128.00;-1.00;-1.00;101091;1303;1004649;-34
2023/01/13 08:04:04;;;;;;;3.40;1.20;;;;;;;-128.00;-1.00;-1.00;101242;1303;1004753;-34
2023/01/13 08:06:29;;;;;;;2.90;0.90;;;;;;;-128.00;-1.00;-1.00;101314;1303;1005592;-34
2023/01/13 08:08:55;;;;;;;3.60;0.90;;;;;;;-128.00;-1.00;-1.00;100949;1303;1004812;-35
2023/01/13 08:11:21;;;;;;;6.10;1.20;;;;;;;-128.00;-1.00;-1.00;101217;1303;1004867;-31
2023/01/13 08:13:47;;;;;;;1.80;0.70;;;;;;;-128.00;-1.00;-1.00;101152;1303;1004668;-34
2023/01/13 08:16:13;;;;;;;2.60;0.80;;;;;;;-128.00;-1.00;-1.00;101100;1303;1005633;-34
2023/01/13 08:18:39;;;;;;;1.70;0.80;;;;;;;-128.00;-1.00;-1.00;101141;1302;1004218;-30
2023/01/13 08:21:12;;;;;;;2.30;0.90;;;;;;;-128.00;-1.00;-1.00;101250;1303;1004428;-30
2023/01/13 08:23:38;;;;;;;1.60;0.90;;;;;;;-128.00;-1.00;-1.00;101172;1303;1004773;-35
2023/01/13 08:26:06;;;;;;;3.50;1.00;;;;;;;-128.00;-1.00;-1.00;101116;1303;1004201;-31
2023/01/13 08:28:31;;;;;;;2.20;1.00;;;;;;;-128.00;-1.00;-1.00;101105;1301;1004211;-31
2023/01/13 08:31:01;;;;;;;6.80;0.90;;;;;;;-128.00;-1.00;-1.00;101209;1303;1004439;-35
2023/01/13 08:33:27;;;;;;;8.00;1.40;;;;;;;-128.00;-1.00;-1.00;101121;1303;1004236;-30
2023/01/13 08:35:53;;;;;;;2.30;0.70;;;;;;;-128.00;-1.00;-1.00;101130;1303;1004293;-34
2023/01/13 08:38:19;;;;;;;4.20;1.00;;;;;;;-128.00;-1.00;-1.00;101277;1303;1003886;-30
2023/01/13 08:40:45;;;;;;;4.50;1.70;;;;;;;-128.00;-1.00;-1.00;101093;1303;1004153;-31
2023/01/13 08:43:10;;;;;;;3.10;1.10;;;;;;;-128.00;-1.00;-1.00;101085;1303;1004520;-31
2023/01/13 08:45:36;;;;;;;2.50;1.00;;;;;;;-128.00;-1.00;-1.00;100999;1303;1005473;-31
2023/01/13 08:48:02;;;;;;;2.20;0.70;;;;;;;-128.00;-1.00;-1.00;101046;1303;1004843;-30
2023/01/13 08:50:27;;;;;;;2.30;0.60;;;;;;;-128.00;-1.00;-1.00;100902;1303;1005009;-30
2023/01/13 08:52:53;;;;;;;10.20;3.40;;;;;;;-128.00;-1.00;-1.00;100996;1303;1005017;-29
2023/01/13 08:55:19;;;;;;;3.80;0.80;;;;;;;-128.00;-1.00;-1.00;101143;1303;1004322;-34
2023/01/13 08:57:45;;;;;;;6.50;1.30;;;;;;;-128.00;-1.00;-1.00;101118;1303;1004303;-31
2023/01/13 09:00:11;;;;;;;2.10;0.90;;;;;;;-128.00;-1.00;-1.00;101150;1303;1004834;-34
2023/01/13 09:02:37;;;;;;;1.70;0.90;;;;;;;-128.00;-1.00;-1.00;101201;1302;1005021;-34
2023/01/13 09:05:06;;;;;;;2.60;1.10;;;;;;;-128.00;-1.00;-1.00;101186;1303;1004798;-30
2023/01/13 09:07:32;;;;;;;2.70;0.70;;;;;;;-128.00;-1.00;-1.00;101131;1303;1003535;-35
2023/01/13 09:09:58;;;;;;;1.70;0.70;;;;;;;-128.00;-1.00;-1.00;101179;1303;1004527;-36
2023/01/13 09:14:53;;;;;;;2.20;0.60;;;;;;;-128.00;-1.00;-1.00;101172;1303;1005284;-35
2023/01/13 09:17:18;;;;;;;6.40;0.90;;;;;;;-128.00;-1.00;-1.00;101200;1302;1004676;-31
2023/01/13 09:19:45;;;;;;;1.70;0.80;;;;;;;-128.00;-1.00;-1.00;101218;1303;1004105;-34
2023/01/13 09:22:16;;;;;;;5.70;1.00;;;;;;;-128.00;-1.00;-1.00;101092;1303;1003882;-35
2023/01/13 09:24:42;;;;;;;3.00;1.20;;;;;;;-128.00;-1.00;-1.00;101055;1301;1004070;-32
2023/01/13 09:27:09;;;;;;;2.50;0.90;;;;;;;-128.00;-1.00;-1.00;101220;1303;1004200;-33
2023/01/13 09:29:35;;;;;;;6.40;0.80;;;;;;;-128.00;-1.00;-1.00;101237;1303;1004895;-32
2023/01/13 09:32:00;;;;;;;1.40;0.70;;;;;;;-128.00;-1.00;-1.00;101183;1302;1004472;-35
2023/01/13 09:36:55;;;;;;;9.70;1.00;;;;;;;-128.00;-1.00;-1.00;101012;1303;1004576;-35
2023/01/13 09:39:21;;;;;;;2.20;0.70;;;;;;;-128.00;-1.00;-1.00;101105;1303;1004554;-29
2023/01/13 09:44:26;;;;;;;1.80;0.70;;;;;;;-128.00;-1.00;-1.00;101267;1302;1004799;-37
2023/01/13 09:46:55;;;;;;;3.40;0.80;;;;;;;-128.00;-1.00;-1.00;101046;1303;1004393;-35
2023/01/13 09:49:23;;;;;;;2.70;0.90;;;;;;;-128.00;-1.00;-1.00;101041;1303;1004279;-35
2023/01/13 09:51:54;;;;;;;1.40;0.60;;;;;;;-128.00;-1.00;-1.00;101252;1303;1003593;-34
2023/01/13 09:54:27;;;;;;;1.60;0.60;;;;;;;-128.00;-1.00;-1.00;101188;1300;1003575;-31
2023/01/13 09:56:53;;;;;;;1.10;0.70;;;;;;;-128.00;-1.00;-1.00;101106;1300;1004599;-34
2023/01/13 09:59:18;;;;;;;3.80;0.80;;;;;;;-128.00;-1.00;-1.00;100990;1303;1004769;-30
2023/01/13 10:01:57;;;;;;;5.40;2.70;;;;;;;-128.00;-1.00;-1.00;101092;1303;1005214;-33
2023/01/13 10:04:23;;;;;;;9.80;1.30;;;;;;;-128.00;-1.00;-1.00;101034;1303;1003915;-34
2023/01/13 10:06:55;;;;;;;4.40;1.70;;;;;;;-128.00;-1.00;-1.00;101213;1303;1004755;-34
2023/01/13 10:09:43;;;;;;;2.80;0.70;;;;;;;-128.00;-1.00;-1.00;101006;1281;1004225;-32
2023/01/13 10:14:51;;;;;;;2.80;0.80;;;;;;;-128.00;-1.00;-1.00;101117;1282;1004532;-30
2023/01/13 10:17:31;;;;;;;2.30;0.70;;;;;;;-128.00;-1.00;-1.00;101102;1303;1004629;-31
2023/01/13 10:20:13;;;;;;;3.30;1.50;;;;;;;-128.00;-1.00;-1.00;101167;1303;1004728;-30
2023/01/13 10:23:00;;;;;;;3.40;0.70;;;;;;;-128.00;-1.00;-1.00;101151;1303;1003939;-31
2023/01/13 10:25:43;;;;;;;1.20;0.40;;;;;;;-128.00;-1.00;-1.00;101062;1303;1003416;-31
2023/01/13 10:28:11;;;;;;;4.90;1.00;;;;;;;-128.00;-1.00;-1.00;101110;1303;1004059;-32
2023/01/13 10:30:41;;;;;;;1.20;0.50;;;;;;;-128.00;-1.00;-1.00;101249;1303;1004585;-35
2023/01/13 10:33:16;;;;;;;2.80;0.80;;;;;;;-128.00;-1.00;-1.00;101186;1302;1004238;-31
2023/01/13 10:35:58;;;;;;;4.20;1.20;;;;;;;-128.00;-1.00;-1.00;101233;1301;1005015;-32
2023/01/13 10:38:37;;;;;;;2.40;0.90;;;;;;;-128.00;-1.00;-1.00;101101;1303;1004096;-35
2023/01/13 10:41:05;;;;;;;1.40;0.60;;;;;;;-128.00;-1.00;-1.00;101221;1303;1004993;-31
2023/01/13 10:43:31;;;;;;;2.30;0.80;;;;;;;-128.00;-1.00;-1.00;101087;1303;1004807;-32
2023/01/13 10:46:15;;;;;;;4.50;0.90;;;;;;;-128.00;-1.00;-1.00;101150;1303;1004100;-31
2023/01/13 10:48:41;;;;;;;;;;;;;;;-128.00;-1.00;-1.00;101204;1303;1004781;-30
2023/01/13 10:51:34;;;;;;;2.10;0.70;;;;;;;-128.00;-1.00;-1.00;101094;1303;1003863;-30
2023/01/13 10:54:02;;;;;;;2.80;1.10;;;;;;;-128.00;-1.00;-1.00;101097;1303;1004249;-34
2023/01/13 10:56:30;;;;;;;1.90;0.90;;;;;;;-128.00;-1.00;-1.00;101209;1303;1004908;-31
2023/01/13 10:59:15;;;;;;;3.80;1.30;;;;;;;-128.00;-1.00;-1.00;101157;1303;1004475;-35
2023/01/13 11:01:42;;;;;;;1.80;0.90;;;;;;;-128.00;-1.00;-1.00;101097;1302;1005035;-35
2023/01/13 11:04:26;;;;;;;1.90;0.50;;;;;;;-128.00;-1.00;-1.00;101203;1303;1005319;-36
2023/01/13 11:45:15;;;;;;;0.90;0.60;;;;;;;8.52;98.28;98765.30;104573;1302;557675;-37
2023/01/13 11:47:45;;;;;;;1.50;0.80;;;;;;;8.74;96.92;98769.89;104414;1301;411677;-32
2023/01/13 11:50:17;;;;;;;0.60;0.40;;;;;;;8.65;96.67;98764.63;104827;1302;22799;-31
2023/01/13 11:53:07;;;;;;;5.50;0.90;;;;;;;8.65;96.47;98761.08;104790;1299;22667;-35
2023/01/13 11:55:46;;;;;;;1.90;0.50;;;;;;;8.68;96.61;98759.81;104771;1298;22767;-36
2023/01/13 11:58:35;;;;;;;3.90;1.70;;;;;;;8.97;94.57;98762.84;104989;1302;23294;-35
2023/01/13 12:01:26;;;;;;;1.50;0.70;;;;;;;8.83;94.57;98761.19;104796;1302;22657;-32
2023/01/13 12:04:05;;;;;;;1.20;0.50;;;;;;;8.86;94.71;98757.83;104907;1299;22729;-30
2023/01/13 12:06:34;;;;;;;4.20;0.50;;;;;;;8.76;94.78;98753.38;104859;1299;23147;-30
2023/01/13 12:09:24;;;;;;;10.00;0.90;;;;;;;8.65;96.44;98749.39;104935;1299;22793;-30
2023/01/13 12:14:55;;;;;;;2.30;0.70;;;;;;;8.90;96.04;98750.78;104764;1302;22941;-32
2023/01/13 12:17:36;;;;;;;8.00;0.60;;;;;;;8.89;95.67;98748.94;104523;1295;22788;-35
2023/01/13 12:20:19;;;;;;;1.50;0.60;;;;;;;8.81;96.41;98745.95;104906;1279;22665;-32
2023/01/13 12:22:45;;;;;;;2.40;0.50;;;;;;;8.99;95.79;98743.94;104874;1282;24346;-36
2023/01/13 12:25:17;;;;;;;2.10;0.80;;;;;;;9.00;95.45;98747.11;104819;1302;22714;-34
2023/01/13 12:27:45;;;;;;;4.10;1.40;;;;;;;8.78;97.12;98751.95;104777;1298;24287;-34
2023/01/13 12:30:22;;;;;;;2.60;0.60;;;;;;;8.83;97.91;98756.49;104832;1292;22711;-31
2023/01/13 12:32:47;;;;;;;2.80;1.10;;;;;;;9.08;96.55;98755.16;104690;1302;22560;-32
2023/01/13 12:35:32;;;;;;;2.80;1.70;;;;;;;8.89;96.99;98758.90;104847;1302;23195;-31
2023/01/13 12:38:13;;;;;;;2.50;1.00;;;;;;;8.72;98.91;98756.98;104942;1292;22559;-35
2023/01/13 12:40:46;;;;;;;2.40;1.40;;;;;;;8.77;99.34;98750.83;104798;1288;22620;-36
2023/01/13 12:45:46;;;;;;;4.20;1.30;;;;;;;8.57;100.00;98750.14;104841;1295;24275;-36
2023/01/13 12:48:35;;;;;;;4.50;1.30;;;;;;;8.54;100.00;98748.39;104849;1293;22652;-37
2023/01/13 12:51:01;;;;;;;6.80;4.00;;;;;;;8.38;100.00;98753.70;104966;1287;24221;-35
2023/01/13 12:53:30;;;;;;;3.80;1.50;;;;;;;8.42;100.00;98752.29;104862;1296;24410;-31
2023/01/13 12:56:19;;;;;;;3.50;1.30;;;;;;;8.41;100.00;98750.30;104831;1292;22797;-31
2023/01/13 12:58:45;;;;;;;3.80;1.40;;;;;;;8.32;100.00;98751.73;104730;1302;24193;-33
2023/01/13 13:01:12;;;;;;;3.60;1.60;;;;;;;8.36;100.00;98753.81;104756;1292;22802;-31
2023/01/13 13:03:38;;;;;;;10.60;2.50;;;;;;;8.30;100.00;98751.21;104937;1292;24301;-31
2023/01/13 13:06:08;;;;;;;4.20;2.60;;;;;;;8.29;100.00;98750.42;104829;1302;22799;-37
2023/01/13 13:08:45;;;;;;;4.60;2.60;;;;;;;-73.49;39.40;39498.62;102709;1302;1003032;-31
2023/01/13 13:13:48;;;;;;;8.30;2.80;;;;;;;-128.00;-1.00;-1.00;101233;1302;1004823;-36
2023/01/13 13:16:35;;;;;;;4.50;2.30;;;;;;;-128.00;-1.00;-1.00;101270;1302;1004093;-35
2023/01/13 13:19:32;;;;;;;3.00;1.50;;;;;;;-128.00;-1.00;-1.00;101233;1302;1004310;-32
2023/01/13 13:22:16;;;;;;;3.60;1.50;;;;;;;-128.00;-1.00;-1.00;101262;1302;1004723;-35
2023/01/13 13:24:43;;;;;;;;;;;;;;;-128.00;-1.00;-1.00;101338;1302;1004976;-36
2023/01/13 13:27:25;;;;;;;3.30;1.70;;;;;;;-128.00;-1.00;-1.00;101184;1302;1004128;-36
2023/01/13 13:30:12;;;;;;;3.40;1.30;;;;;;;-128.00;-1.00;-1.00;101126;1302;1004204;-35
2023/01/13 13:33:02;;;;;;;3.10;0.90;;;;;;;-128.00;-1.00;-1.00;101243;1302;1004432;-32
2023/01/13 13:36:07;;;;;;;3.40;1.30;;;;;;;-128.00;-1.00;-1.00;101333;1302;1005190;-30
2023/01/13 13:49:02;;;;;;;1.70;1.10;;;;;;;-128.00;-1.00;-1.00;101302;1302;1005158;-35
2023/01/13 13:51:31;;;;;;;4.70;1.40;;;;;;;-128.00;-1.00;-1.00;101314;1302;1005076;-34
2023/01/13 13:53:58;;;;;;;4.00;3.10;;;;;;;-128.00;-1.00;-1.00;101276;1302;1005004;-31
2023/01/13 13:56:26;;;;;;;5.70;1.70;;;;;;;-128.00;-1.00;-1.00;101413;1302;1004750;-31
2023/01/13 13:58:52;;;;;;;4.40;1.60;;;;;;;-128.00;-1.00;-1.00;101426;1302;1003280;-31
2023/01/13 14:01:34;;;;;;;3.40;1.40;;;;;;;-128.00;-1.00;-1.00;101223;1302;1004761;-34
2023/01/13 14:04:13;;;;;;;2.90;1.20;;;;;;;-128.00;-1.00;-1.00;101199;1302;1004922;-35
2023/01/13 14:06:48;;;;;;;1.90;1.30;;;;;;;-128.00;-1.00;-1.00;101394;1302;1004060;-31